ENAL

Ålesund Airport

Ålesund, Norway
METAR ENAL 200650Z 14011KT CAVOK M00/M06 Q1023
Observed Flight Rules
Feb-20 @ 06:50 UTC (39 minutes ago) Visual Flight Rules
Wind Visibility Clouds
140° at 11 knots 10,000+ meters
  • Clear skies
Temperatures Readings
Current 0°C / 32°F
Dewpoint -6°C / 21°F
Humidity 64%
Altimeter 30.21" Hg
Pressure 1023 hPa
Elevation 22
METAR ENAL 200650Z 14011KT CAVOK M00/M06 Q1023
Observed Flight Rules
Feb-20 @ 06:50 UTC
(39 minutes ago)
VFR
Wind Visibility
140° at 11 knots 10,000+ meters
Clouds
  • Clear skies
Temperature Dewpoint
0°C / 32°F -6°C / 21°F
Humidity Altimeter Pressure
64% 30.21" Hg 1023 hPa